createdAt,value
2023-04-12T00:00:07.371Z,46.41
2023-04-12T00:01:08.166Z,46.73
2023-04-12T00:02:07.431Z,46.89
2023-04-12T00:03:08.322Z,46.57
2023-04-12T00:04:08.308Z,46.57
2023-04-12T00:05:07.404Z,46.57
2023-04-12T00:06:08.076Z,48.98
2023-04-12T00:07:07.304Z,47.21
2023-04-12T00:08:08.134Z,46.89
2023-04-12T00:09:07.275Z,46.57
2023-04-12T00:10:08.998Z,47.21
2023-04-12T00:11:09.054Z,46.89
2023-04-12T00:12:08.077Z,46.89
2023-04-12T00:13:07.296Z,47.21
2023-04-12T00:14:08.064Z,47.86
2023-04-12T00:15:08.308Z,47.21
2023-04-12T00:16:08.656Z,47.70
2023-04-12T00:17:08.007Z,47.21
2023-04-12T00:18:08.086Z,47.21
2023-04-12T00:19:08.041Z,46.89
2023-04-12T00:20:07.164Z,47.21
2023-04-12T00:21:09.041Z,46.89
2023-04-12T00:22:08.667Z,46.89
2023-04-12T00:23:07.144Z,47.21
2023-04-12T00:24:08.738Z,46.89
2023-04-12T00:25:09.021Z,46.89
2023-04-12T00:26:07.108Z,46.73
2023-04-12T00:27:09.019Z,47.37
2023-04-12T00:28:08.439Z,46.89
2023-04-12T00:29:07.907Z,47.05
2023-04-12T00:30:07.864Z,47.21
2023-04-12T00:31:08.056Z,46.73
2023-04-12T00:32:07.717Z,46.57
2023-04-12T00:33:07.188Z,46.25
2023-04-12T00:34:08.515Z,46.57
2023-04-12T00:35:07.952Z,46.73
2023-04-12T00:36:07.044Z,46.25
2023-04-12T00:37:08.429Z,46.57
2023-04-12T00:38:07.838Z,46.08
2023-04-12T00:39:07.598Z,46.08
2023-04-12T00:40:08.027Z,45.92
2023-04-12T00:41:06.985Z,46.08
2023-04-12T00:42:07.896Z,46.08
2023-04-12T00:43:07.670Z,46.25
2023-04-12T00:44:07.769Z,46.89
2023-04-12T00:45:07.615Z,46.89
2023-04-12T00:46:07.834Z,46.89
2023-04-12T00:47:07.649Z,47.37
2023-04-12T00:48:07.684Z,49.15
2023-04-12T00:49:07.558Z,48.82
2023-04-12T00:50:06.916Z,46.89
2023-04-12T00:51:07.585Z,46.89
2023-04-12T00:52:07.656Z,46.89
2023-04-12T00:53:07.597Z,46.89
2023-04-12T00:54:07.409Z,47.21
2023-04-12T00:55:07.698Z,45.44
2023-04-12T00:56:06.806Z,47.37
2023-04-12T00:57:08.350Z,46.89
2023-04-12T00:58:07.417Z,47.05
2023-04-12T00:59:06.760Z,47.37
2023-04-12T01:00:07.414Z,47.21
2023-04-12T01:01:07.666Z,47.21
2023-04-12T01:02:06.797Z,47.53
2023-04-12T01:03:07.658Z,47.53
2023-04-12T01:04:07.500Z,47.21
2023-04-12T01:05:06.776Z,46.89
2023-04-12T01:06:08.345Z,47.21
2023-04-12T01:07:07.544Z,47.70
2023-04-12T01:08:06.672Z,47.37
2023-04-12T01:09:07.917Z,47.53
2023-04-12T01:10:07.197Z,47.21
2023-04-12T01:11:06.643Z,48.34
2023-04-12T01:12:08.334Z,47.86
2023-04-12T01:13:07.297Z,47.05
2023-04-12T01:14:07.405Z,47.86
2023-04-12T01:15:07.335Z,47.70
2023-04-12T01:16:07.481Z,47.53
2023-04-12T01:17:06.566Z,47.53
2023-04-12T01:18:08.270Z,50.11
2023-04-12T01:19:07.304Z,48.50
2023-04-12T01:20:06.547Z,47.21
2023-04-12T01:21:07.974Z,46.89
2023-04-12T01:22:07.233Z,47.21
2023-04-12T01:23:06.516Z,47.86
2023-04-12T01:24:08.700Z,47.21
2023-04-12T01:25:07.948Z,47.21
2023-04-12T01:26:06.560Z,48.02
2023-04-12T01:27:08.183Z,47.53
2023-04-12T01:28:07.804Z,47.53
2023-04-12T01:29:07.213Z,47.70
2023-04-12T01:30:06.455Z,47.37
2023-04-12T01:31:07.539Z,47.37
2023-04-12T01:32:07.157Z,47.21
2023-04-12T01:33:07.297Z,47.21
2023-04-12T01:34:07.170Z,47.21
2023-04-12T01:35:07.274Z,47.70
2023-04-12T01:36:07.621Z,47.21
2023-04-12T01:37:06.424Z,47.37
2023-04-12T01:38:08.118Z,47.70
2023-04-12T01:39:07.419Z,47.70
2023-04-12T01:40:07.341Z,47.53
2023-04-12T01:41:07.029Z,47.53
2023-04-12T01:42:07.142Z,47.53
2023-04-12T01:43:06.376Z,47.21
2023-04-12T01:44:07.159Z,47.05
2023-04-12T01:45:06.295Z,47.70
2023-04-12T01:46:07.982Z,47.21
2023-04-12T01:47:07.225Z,47.21
2023-04-12T01:48:07.200Z,47.21
2023-04-12T01:49:06.295Z,46.89
2023-04-12T01:50:07.455Z,46.73
2023-04-12T01:51:06.986Z,46.73
2023-04-12T01:52:07.036Z,46.73
2023-04-12T01:53:06.207Z,46.89
2023-04-12T01:54:08.010Z,46.08
2023-04-12T01:55:07.300Z,46.89
2023-04-12T01:56:06.176Z,46.57
2023-04-12T01:57:07.825Z,46.73
2023-04-12T01:58:07.227Z,47.21
2023-04-12T01:59:06.196Z,47.05
2023-04-12T02:00:06.834Z,46.73
2023-04-12T02:01:06.147Z,46.73
2023-04-12T02:02:06.896Z,46.89
2023-04-12T02:03:07.101Z,46.89
2023-04-12T02:04:06.857Z,46.73
2023-04-12T02:05:06.117Z,64.45
2023-04-12T02:06:07.592Z,49.63
2023-04-12T02:07:06.837Z,54.79
2023-04-12T02:08:06.815Z,46.25
2023-04-12T02:09:06.884Z,47.21
2023-04-12T02:10:06.078Z,46.89
2023-04-12T02:11:07.704Z,47.37
2023-04-12T02:12:06.785Z,47.21
2023-04-12T02:13:06.650Z,47.21
2023-04-12T02:14:06.799Z,48.18
2023-04-12T02:15:06.734Z,46.89
2023-04-12T02:16:05.967Z,47.21
2023-04-12T02:17:07.602Z,47.21
2023-04-12T02:18:06.841Z,47.21
2023-04-12T02:19:05.925Z,47.70
2023-04-12T02:20:07.757Z,46.57
2023-04-12T02:21:06.698Z,47.53
2023-04-12T02:22:06.740Z,47.86
2023-04-12T02:23:06.645Z,47.05
2023-04-12T02:24:05.882Z,46.73
2023-04-12T02:25:06.585Z,47.53
2023-04-12T02:26:05.906Z,46.41
2023-04-12T02:27:06.634Z,47.05
2023-04-12T02:28:05.830Z,46.57
2023-04-12T02:29:06.674Z,46.57
2023-04-12T02:30:05.821Z,46.25
2023-04-12T02:31:07.501Z,46.25
2023-04-12T02:32:06.894Z,46.41
2023-04-12T02:33:05.840Z,48.82
2023-04-12T02:34:06.528Z,46.25
2023-04-12T02:35:06.574Z,46.73
2023-04-12T02:36:05.758Z,46.89
2023-04-12T02:37:06.595Z,47.37
2023-04-12T02:38:06.644Z,47.53
2023-04-12T02:39:06.694Z,47.53
2023-04-12T02:40:05.695Z,46.89
2023-04-12T02:41:06.319Z,47.37
2023-04-12T02:42:05.737Z,48.02
2023-04-12T02:43:06.287Z,47.86
2023-04-12T02:44:05.662Z,47.53
2023-04-12T02:45:06.980Z,47.70
2023-04-12T02:46:06.318Z,47.70
2023-04-12T02:47:05.634Z,47.70
2023-04-12T02:48:06.539Z,47.86
2023-04-12T02:49:05.606Z,48.50
2023-04-12T02:50:06.420Z,47.53
2023-04-12T02:51:06.329Z,47.37
2023-04-12T02:52:06.423Z,47.37
2023-04-12T02:53:07.379Z,47.70
2023-04-12T02:54:06.427Z,47.37
2023-04-12T02:55:06.361Z,51.72
2023-04-12T02:56:06.738Z,46.25
2023-04-12T02:57:06.313Z,49.63
2023-04-12T02:58:06.137Z,48.66
2023-04-12T02:59:06.346Z,46.25
2023-04-12T03:00:06.182Z,46.57
2023-04-12T03:01:06.305Z,53.50
2023-04-12T03:02:06.287Z,46.73
2023-04-12T03:03:06.413Z,47.05
2023-04-12T03:04:06.295Z,49.15
2023-04-12T03:05:05.474Z,47.21
2023-04-12T03:06:06.947Z,50.92
2023-04-12T03:07:06.304Z,47.70
2023-04-12T03:08:06.105Z,47.21
2023-04-12T03:09:07.213Z,50.60
2023-04-12T03:10:06.225Z,46.89
2023-04-12T03:11:06.114Z,48.34
2023-04-12T03:12:06.253Z,47.70
2023-04-12T03:13:05.990Z,47.70
2023-04-12T03:14:07.154Z,47.70
2023-04-12T03:15:05.396Z,48.34
2023-04-12T03:16:06.208Z,48.34
2023-04-12T03:17:07.053Z,56.88
2023-04-12T03:18:05.406Z,48.82
2023-04-12T03:19:07.161Z,71.22
2023-04-12T03:20:06.483Z,48.82
2023-04-12T03:21:05.324Z,48.18
2023-04-12T03:22:06.182Z,60.75
2023-04-12T03:23:06.044Z,55.59
2023-04-12T03:24:06.082Z,70.58
2023-04-12T03:25:06.043Z,59.30
2023-04-12T03:26:05.931Z,49.79
2023-04-12T03:27:06.994Z,48.34
2023-04-12T03:28:05.212Z,72.35
2023-04-12T03:29:07.762Z,48.50
2023-04-12T03:30:05.191Z,48.34
2023-04-12T03:31:06.096Z,48.98
2023-04-12T03:32:06.881Z,48.82
2023-04-12T03:33:06.022Z,48.18
2023-04-12T03:34:05.132Z,48.02
2023-04-12T03:35:05.971Z,52.05
2023-04-12T03:36:05.150Z,50.60
2023-04-12T03:37:06.022Z,50.11
2023-04-12T03:38:05.791Z,49.63
2023-04-12T03:39:05.922Z,49.15
2023-04-12T03:40:05.935Z,48.18
2023-04-12T03:41:05.910Z,48.66
2023-04-12T03:42:05.052Z,54.30
2023-04-12T03:43:06.882Z,48.02
2023-04-12T03:44:06.630Z,49.79
2023-04-12T03:45:05.046Z,50.11
2023-04-12T03:46:05.870Z,51.88
2023-04-12T03:47:05.011Z,48.66
2023-04-12T03:48:06.877Z,52.53
2023-04-12T03:49:07.269Z,48.66
2023-04-12T03:50:11.367Z,52.53
2023-04-12T03:51:05.635Z,66.06
2023-04-12T03:52:04.965Z,50.27
2023-04-12T03:53:05.712Z,69.61
2023-04-12T03:54:05.820Z,54.46
2023-04-12T03:55:05.684Z,48.50
2023-04-12T03:56:05.853Z,49.31
2023-04-12T03:57:05.694Z,49.47
2023-04-12T03:58:05.511Z,50.43
2023-04-12T03:59:05.820Z,51.56
2023-04-12T04:00:05.552Z,48.82
2023-04-12T04:01:05.671Z,49.79
2023-04-12T04:02:05.528Z,49.95
2023-04-12T04:03:05.772Z,49.95
2023-04-12T04:04:05.833Z,49.31
2023-04-12T04:05:05.742Z,50.43
2023-04-12T04:06:05.570Z,49.47
2023-04-12T04:07:05.683Z,49.47
2023-04-12T04:08:05.503Z,56.72
2023-04-12T04:09:05.622Z,53.50
2023-04-12T04:10:05.689Z,50.27
2023-04-12T04:11:06.709Z,66.55
2023-04-12T04:12:05.521Z,53.50
2023-04-12T04:13:05.333Z,59.78
2023-04-12T04:14:05.492Z,56.72
2023-04-12T04:15:04.722Z,49.95
2023-04-12T04:16:05.635Z,61.71
2023-04-12T04:17:05.338Z,61.23
2023-04-12T04:18:04.726Z,51.40
2023-04-12T04:19:05.302Z,53.82
2023-04-12T04:20:04.705Z,51.56
2023-04-12T04:21:05.443Z,50.11
2023-04-12T04:22:05.498Z,61.23
2023-04-12T04:23:04.631Z,48.82
2023-04-12T04:24:05.492Z,53.82
2023-04-12T04:25:05.350Z,58.49
2023-04-12T04:26:05.604Z,52.21
2023-04-12T04:27:05.362Z,51.56
2023-04-12T04:28:05.176Z,49.47
2023-04-12T04:29:05.385Z,49.95
2023-04-12T04:30:04.578Z,49.31
2023-04-12T04:31:05.375Z,49.31
2023-04-12T04:32:05.391Z,49.47
2023-04-12T04:33:05.512Z,49.63
2023-04-12T04:34:05.456Z,50.27
2023-04-12T04:35:05.326Z,50.11
2023-04-12T04:36:05.291Z,55.11
2023-04-12T04:37:04.565Z,52.37
2023-04-12T04:38:06.027Z,53.17
2023-04-12T04:39:05.400Z,50.43
2023-04-12T04:40:05.267Z,55.43
2023-04-12T04:41:04.465Z,52.53
2023-04-12T04:42:06.450Z,51.24
2023-04-12T04:43:07.769Z,51.56
2023-04-12T04:44:04.444Z,54.14
2023-04-12T04:45:06.133Z,51.88
2023-04-12T04:46:05.857Z,58.65
2023-04-12T04:47:05.096Z,51.08
2023-04-12T04:48:05.325Z,51.08
2023-04-12T04:49:05.057Z,52.05
2023-04-12T04:50:05.205Z,54.62
2023-04-12T04:51:05.007Z,50.92
2023-04-12T04:52:05.200Z,49.95
2023-04-12T04:53:05.248Z,51.56
2023-04-12T04:54:05.184Z,52.69
2023-04-12T04:55:07.429Z,52.21
2023-04-12T04:56:04.318Z,54.46
2023-04-12T04:57:05.046Z,59.94
2023-04-12T04:58:05.170Z,60.75
2023-04-12T04:59:05.005Z,55.27
2023-04-12T05:00:04.881Z,70.25
2023-04-12T05:01:04.260Z,67.51
2023-04-12T05:02:05.007Z,61.55
2023-04-12T05:03:05.131Z,61.39
2023-04-12T05:04:05.051Z,62.52
2023-04-12T05:05:05.060Z,60.59
2023-04-12T05:06:04.198Z,63.97
2023-04-12T05:07:05.054Z,61.07
2023-04-12T05:08:04.232Z,60.26
2023-04-12T05:09:05.030Z,63.65
2023-04-12T05:10:04.174Z,70.09
2023-04-12T05:11:04.995Z,77.50
2023-04-12T05:12:04.919Z,77.83
2023-04-12T05:13:04.951Z,77.34
2023-04-12T05:14:04.938Z,77.50
2023-04-12T05:15:11.621Z,77.99
2023-04-12T05:16:04.872Z,78.47
2023-04-12T05:17:04.122Z,77.67
2023-04-12T05:18:05.758Z,71.70
2023-04-12T05:19:04.732Z,71.38
2023-04-12T05:20:04.895Z,70.74
2023-04-12T05:21:04.732Z,70.58
2023-04-12T05:22:04.045Z,71.06
2023-04-12T05:23:04.691Z,71.22
2023-04-12T05:24:04.082Z,68.16
2023-04-12T05:25:05.454Z,68.80
2023-04-12T05:26:04.650Z,68.80
2023-04-12T05:27:03.969Z,70.90
2023-04-12T05:28:05.870Z,66.71
2023-04-12T05:29:04.730Z,64.45
2023-04-12T05:30:05.673Z,65.74
2023-04-12T05:31:04.723Z,60.42
2023-04-12T05:32:04.571Z,61.39
2023-04-12T05:33:04.792Z,69.77
2023-04-12T05:34:04.561Z,69.45
2023-04-12T05:35:04.731Z,68.64
2023-04-12T05:36:04.665Z,55.91
2023-04-12T05:37:04.712Z,68.16
2023-04-12T05:38:04.623Z,67.03
2023-04-12T05:39:05.690Z,60.75
2023-04-12T05:40:04.538Z,66.55
2023-04-12T05:41:04.740Z,57.85
2023-04-12T05:42:04.542Z,56.07
2023-04-12T05:43:05.615Z,75.73
2023-04-12T05:44:04.522Z,57.69
2023-04-12T05:45:04.857Z,71.22
2023-04-12T05:46:04.689Z,68.16
2023-04-12T05:47:04.514Z,62.84
2023-04-12T05:48:04.609Z,69.45
2023-04-12T05:49:04.390Z,65.58
2023-04-12T05:50:06.390Z,60.42
2023-04-12T05:51:04.413Z,65.10
2023-04-12T05:52:04.594Z,62.04
2023-04-12T05:53:04.510Z,58.81
2023-04-12T05:54:04.556Z,56.24
2023-04-12T05:55:04.415Z,63.49
2023-04-12T05:56:04.516Z,63.33
2023-04-12T05:57:04.481Z,69.93
2023-04-12T05:58:04.498Z,58.33
2023-04-12T05:59:04.404Z,68.00
2023-04-12T06:00:04.499Z,68.48
2023-04-12T06:01:04.385Z,66.71
2023-04-12T06:02:04.309Z,60.59
2023-04-12T06:03:04.505Z,59.62
2023-04-12T06:04:04.302Z,61.55
2023-04-12T06:05:04.606Z,61.71
2023-04-12T06:06:04.199Z,61.23
2023-04-12T06:07:04.564Z,63.00
2023-04-12T06:08:04.291Z,66.06
2023-04-12T06:09:04.457Z,61.87
2023-04-12T06:10:05.219Z,62.36
2023-04-12T06:11:03.516Z,65.58
2023-04-12T06:12:04.320Z,61.39
2023-04-12T06:13:03.566Z,61.55
2023-04-12T06:14:04.459Z,65.26
2023-04-12T06:15:04.274Z,63.81
2023-04-12T06:16:04.244Z,70.58
2023-04-12T06:17:04.288Z,69.61
2023-04-12T06:18:04.265Z,59.62
2023-04-12T06:19:04.208Z,71.22
2023-04-12T06:20:04.298Z,61.39
2023-04-12T06:21:04.389Z,63.81
2023-04-12T06:22:03.468Z,73.48
2023-04-12T06:23:03.475Z,80.73
2023-04-12T06:24:04.168Z,71.06
2023-04-12T06:25:04.619Z,72.51
2023-04-12T06:26:05.389Z,72.99
2023-04-12T06:27:04.128Z,72.67
2023-04-12T06:28:04.201Z,72.83
2023-04-12T06:29:04.067Z,65.10
2023-04-12T06:30:04.255Z,55.11
2023-04-12T06:31:04.064Z,57.04
2023-04-12T06:32:03.897Z,60.26
2023-04-12T06:33:04.197Z,53.01
2023-04-12T06:34:03.923Z,57.20
2023-04-12T06:35:04.136Z,52.37
2023-04-12T06:36:04.116Z,61.07
2023-04-12T06:37:04.071Z,60.59
2023-04-12T06:38:04.052Z,50.92
2023-04-12T06:39:04.385Z,56.88
2023-04-12T06:40:04.214Z,56.07
2023-04-12T06:41:04.041Z,55.91
2023-04-12T06:42:04.041Z,59.30
2023-04-12T06:43:04.181Z,65.74
2023-04-12T06:44:03.170Z,59.14
2023-04-12T06:45:05.040Z,75.73
2023-04-12T06:46:03.891Z,56.88
2023-04-12T06:47:03.834Z,56.72
2023-04-12T06:48:04.048Z,69.93
2023-04-12T06:49:03.764Z,56.88
2023-04-12T06:50:03.943Z,53.01
2023-04-12T06:51:03.809Z,54.14
2023-04-12T06:52:04.938Z,56.07
2023-04-12T06:53:03.793Z,41.73
2023-04-12T06:54:03.962Z,40.77
2023-04-12T06:55:03.096Z,48.34
2023-04-12T06:56:03.880Z,40.93
2023-04-12T06:57:03.812Z,42.06
2023-04-12T06:58:03.837Z,41.25
2023-04-12T06:59:04.758Z,42.06
2023-04-12T07:00:03.892Z,51.24
2023-04-12T07:01:04.005Z,50.11
2023-04-12T07:02:03.831Z,62.52
2023-04-12T07:03:03.827Z,45.92
2023-04-12T07:04:03.640Z,43.18
2023-04-12T07:05:04.851Z,43.18
2023-04-12T07:06:10.803Z,43.18
2023-04-12T07:07:03.718Z,41.89
2023-04-12T07:08:03.563Z,53.66
2023-04-12T07:09:03.706Z,42.54
2023-04-12T07:10:03.621Z,52.69
2023-04-12T07:11:14.584Z,71.54
2023-04-12T07:12:03.593Z,54.95
2023-04-12T07:13:03.649Z,61.23
2023-04-12T07:14:03.769Z,63.33
2023-04-12T07:15:03.653Z,55.91
2023-04-12T07:16:03.694Z,56.56
2023-04-12T07:17:03.457Z,59.78
2023-04-12T07:18:03.742Z,61.23
2023-04-12T07:19:03.415Z,61.87
2023-04-12T07:20:03.596Z,58.17
2023-04-12T07:21:03.538Z,60.75
2023-04-12T07:22:03.721Z,58.01
2023-04-12T07:23:03.441Z,58.49
2023-04-12T07:24:03.580Z,72.83
2023-04-12T07:25:03.841Z,69.93
2023-04-12T07:26:03.540Z,62.84
2023-04-12T07:27:03.455Z,62.04
2023-04-12T07:28:03.494Z,70.09
2023-04-12T07:29:03.391Z,71.70
2023-04-12T07:30:03.669Z,70.74
2023-04-12T07:31:03.454Z,67.68
2023-04-12T07:32:03.334Z,68.80
2023-04-12T07:33:16.201Z,57.69
2023-04-12T07:34:04.128Z,54.79
2023-04-12T07:35:03.483Z,59.30
2023-04-12T07:36:03.243Z,59.46
2023-04-12T07:37:03.483Z,59.14
2023-04-12T07:38:03.418Z,61.39
2023-04-12T07:39:03.397Z,54.30
2023-04-12T07:40:03.329Z,57.85
2023-04-12T07:41:03.455Z,56.88
2023-04-12T07:42:03.316Z,60.59
2023-04-12T07:43:03.379Z,56.24
2023-04-12T07:44:03.301Z,62.36
2023-04-12T07:45:03.451Z,69.13
2023-04-12T07:46:03.310Z,60.75
2023-04-12T07:47:03.140Z,75.41
2023-04-12T07:48:03.479Z,56.07
2023-04-12T07:49:03.134Z,64.29
2023-04-12T07:50:04.303Z,58.81
2023-04-12T07:51:03.227Z,59.94
2023-04-12T07:52:03.315Z,62.84
2023-04-12T07:53:03.165Z,66.87
2023-04-12T07:54:03.338Z,62.04
2023-04-12T07:55:02.429Z,63.16
2023-04-12T07:56:03.284Z,55.11
2023-04-12T07:57:03.106Z,54.14
2023-04-12T07:58:03.414Z,54.95
2023-04-12T07:59:03.187Z,60.10
2023-04-12T08:00:03.144Z,60.59
2023-04-12T08:01:03.131Z,59.94
2023-04-12T08:02:03.061Z,59.14
2023-04-12T08:03:03.333Z,56.72
2023-04-12T08:04:03.347Z,56.88
2023-04-12T08:05:03.153Z,59.14
2023-04-12T08:06:03.063Z,62.04
2023-04-12T08:07:03.075Z,67.68
2023-04-12T08:08:02.964Z,68.96
2023-04-12T08:09:03.074Z,66.87
2023-04-12T08:10:02.905Z,68.64
2023-04-12T08:11:03.094Z,64.94
2023-04-12T08:12:02.986Z,53.82
2023-04-12T08:13:03.035Z,54.46
2023-04-12T08:14:02.970Z,55.43
2023-04-12T08:15:03.014Z,53.17
2023-04-12T08:16:02.928Z,52.53
2023-04-12T08:17:02.874Z,52.05
2023-04-12T08:18:02.991Z,57.69
2023-04-12T08:19:02.917Z,56.24
2023-04-12T08:20:03.007Z,60.26
2023-04-12T08:21:02.858Z,61.39
2023-04-12T08:22:02.995Z,63.33
2023-04-12T08:23:02.826Z,63.49
2023-04-12T08:24:02.892Z,61.39
2023-04-12T08:25:02.983Z,52.69
2023-04-12T08:26:03.057Z,56.40
2023-04-12T08:27:02.772Z,63.00
2023-04-12T08:28:02.082Z,52.85
2023-04-12T08:29:02.814Z,69.13
2023-04-12T08:30:02.032Z,68.32
2023-04-12T08:31:02.852Z,68.00
2023-04-12T08:32:02.632Z,70.58
2023-04-12T08:33:02.879Z,67.35
2023-04-12T08:34:02.831Z,66.71
2023-04-12T08:35:02.894Z,64.61
2023-04-12T08:36:02.694Z,61.07
2023-04-12T08:37:02.866Z,63.33
2023-04-12T08:38:02.620Z,62.04
2023-04-12T08:39:02.795Z,74.44
2023-04-12T08:40:02.598Z,69.29
2023-04-12T08:41:02.794Z,72.67
2023-04-12T08:42:02.613Z,65.58
2023-04-12T08:43:02.783Z,63.65
2023-04-12T08:44:02.624Z,59.78
2023-04-12T08:45:02.719Z,58.49
2023-04-12T08:46:02.713Z,58.81
2023-04-12T08:47:02.521Z,57.36
2023-04-12T08:48:02.598Z,57.85
2023-04-12T08:49:02.567Z,58.01
2023-04-12T08:50:02.672Z,56.72
2023-04-12T08:51:02.544Z,67.68
2023-04-12T08:52:02.615Z,65.58
2023-04-12T08:53:02.526Z,65.58
2023-04-12T08:54:02.663Z,67.35
2023-04-12T08:55:02.441Z,66.87
2023-04-12T08:56:02.590Z,65.58
2023-04-12T08:57:02.610Z,66.71
2023-04-12T08:58:02.533Z,68.32
2023-04-12T08:59:02.439Z,65.58
2023-04-12T09:00:02.586Z,63.65
2023-04-12T09:01:02.512Z,64.61
2023-04-12T09:02:02.660Z,62.36
2023-04-12T09:03:02.828Z,68.48
2023-04-12T09:04:02.810Z,57.69
2023-04-12T09:05:02.638Z,65.58
2023-04-12T09:06:02.319Z,65.26
2023-04-12T09:07:02.426Z,62.68
2023-04-12T09:08:02.448Z,58.65
2023-04-12T09:09:02.501Z,64.45
2023-04-12T09:10:02.516Z,67.68
2023-04-12T09:11:02.642Z,64.61
2023-04-12T09:12:02.424Z,63.00
2023-04-12T09:13:02.394Z,68.00
2023-04-12T09:14:02.733Z,66.55
2023-04-12T09:15:02.383Z,72.51
2023-04-12T09:16:02.358Z,75.57
2023-04-12T09:17:03.283Z,66.87
2023-04-12T09:18:03.403Z,67.35
2023-04-12T09:19:02.180Z,65.90
2023-04-12T09:20:02.296Z,66.71
2023-04-12T09:21:02.293Z,67.51
2023-04-12T09:22:02.389Z,69.13
2023-04-12T09:23:02.234Z,64.61
2023-04-12T09:24:02.295Z,56.40
2023-04-12T09:25:02.712Z,64.29
2023-04-12T09:26:02.313Z,61.55
2023-04-12T09:27:02.173Z,63.81
2023-04-12T09:28:02.313Z,67.35
2023-04-12T09:29:02.133Z,76.70
2023-04-12T09:30:02.293Z,63.65
2023-04-12T09:31:02.144Z,67.19
2023-04-12T09:32:02.234Z,62.84
2023-04-12T09:33:02.240Z,70.09
2023-04-12T09:34:02.135Z,68.32
2023-04-12T09:35:02.139Z,66.39
2023-04-12T09:36:02.084Z,60.75
2023-04-12T09:37:02.198Z,63.49
2023-04-12T09:38:02.191Z,74.60
2023-04-12T09:39:02.334Z,72.51
2023-04-12T09:40:02.044Z,74.44
2023-04-12T09:41:02.154Z,71.38
2023-04-12T09:42:01.960Z,72.83
2023-04-12T09:43:02.237Z,70.74
2023-04-12T09:44:02.053Z,72.03
2023-04-12T09:45:02.024Z,73.15
2023-04-12T09:46:02.186Z,71.22
2023-04-12T09:47:01.895Z,72.51
2023-04-12T09:48:02.109Z,72.03
2023-04-12T09:49:01.870Z,62.04
2023-04-12T09:50:02.002Z,64.29
2023-04-12T09:51:01.837Z,63.33
2023-04-12T09:52:02.010Z,63.97
2023-04-12T09:53:01.889Z,67.35
2023-04-12T09:54:02.025Z,77.83
2023-04-12T09:55:01.986Z,67.19
2023-04-12T09:56:01.931Z,68.48
2023-04-12T09:57:01.876Z,68.32
2023-04-12T09:58:01.984Z,69.93
2023-04-12T09:59:01.868Z,64.94
2023-04-12T10:00:02.070Z,65.58
2023-04-12T10:01:01.842Z,65.10
2023-04-12T10:02:01.813Z,74.12
2023-04-12T10:03:02.299Z,64.78
2023-04-12T10:04:02.176Z,66.39
2023-04-12T10:05:02.128Z,63.81
2023-04-12T10:06:01.786Z,66.71
2023-04-12T10:07:01.842Z,68.48
2023-04-12T10:08:01.651Z,69.61
2023-04-12T10:09:01.824Z,72.19
2023-04-12T10:10:01.882Z,79.60
2023-04-12T10:11:01.844Z,69.29
2023-04-12T10:12:01.690Z,68.80
2023-04-12T10:13:01.893Z,68.48
2023-04-12T10:14:01.667Z,69.13
2023-04-12T10:15:02.855Z,65.10
2023-04-12T10:16:01.711Z,76.86
2023-04-12T10:17:01.491Z,67.84
2023-04-12T10:18:01.692Z,65.90
2023-04-12T10:19:01.562Z,66.55
2023-04-12T10:20:01.862Z,65.90
2023-04-12T10:21:00.958Z,68.48
2023-04-12T10:22:01.761Z,74.93
2023-04-12T10:23:01.664Z,80.08
2023-04-12T10:24:01.652Z,74.93
2023-04-12T10:25:01.585Z,74.77
2023-04-12T10:26:01.717Z,74.44
2023-04-12T10:27:01.579Z,78.15
2023-04-12T10:28:01.628Z,76.05
2023-04-12T10:29:01.510Z,61.87
2023-04-12T10:30:01.573Z,67.68
2023-04-12T10:31:01.624Z,67.03
2023-04-12T10:32:01.458Z,66.87
2023-04-12T10:33:01.769Z,58.81
2023-04-12T10:34:01.366Z,59.14
2023-04-12T10:35:01.570Z,65.26
2023-04-12T10:36:01.413Z,66.23
2023-04-12T10:37:01.534Z,83.31
2023-04-12T10:38:01.507Z,67.35
2023-04-12T10:39:01.515Z,66.06
2023-04-12T10:40:01.394Z,68.32
2023-04-12T10:41:01.483Z,75.41
2023-04-12T10:42:01.364Z,66.23
2023-04-12T10:43:01.455Z,63.00
2023-04-12T10:44:01.377Z,75.09
2023-04-12T10:45:01.518Z,69.61
2023-04-12T10:46:01.420Z,71.87
2023-04-12T10:47:01.314Z,60.26
2023-04-12T10:48:01.495Z,64.45
2023-04-12T10:49:01.242Z,69.29
2023-04-12T10:50:01.406Z,53.33
2023-04-12T10:51:01.210Z,60.42
2023-04-12T10:52:01.367Z,57.20
2023-04-12T10:53:01.157Z,53.33
2023-04-12T10:54:01.551Z,61.07
2023-04-12T10:55:01.207Z,86.69
2023-04-12T10:56:01.358Z,80.41
2023-04-12T10:57:01.226Z,78.96
2023-04-12T10:58:01.234Z,84.92
2023-04-12T10:59:01.491Z,82.02
2023-04-12T11:00:01.334Z,78.15
2023-04-12T11:01:01.429Z,76.38
2023-04-12T11:02:01.425Z,60.75
2023-04-12T11:03:01.560Z,63.81
2023-04-12T11:04:01.258Z,59.46
2023-04-12T11:05:01.195Z,73.32
2023-04-12T11:06:09.276Z,65.58
2023-04-12T11:07:01.181Z,76.54
2023-04-12T11:08:01.068Z,77.18
2023-04-12T11:09:01.272Z,72.83
2023-04-12T11:10:01.046Z,65.26
2023-04-12T11:11:01.197Z,65.26
2023-04-12T11:12:01.055Z,67.68
2023-04-12T11:13:01.115Z,61.55
2023-04-12T11:14:01.010Z,64.61
2023-04-12T11:15:01.138Z,60.42
2023-04-12T11:16:01.217Z,60.75
2023-04-12T11:17:00.938Z,58.97
2023-04-12T11:18:01.178Z,60.42
2023-04-12T11:19:00.878Z,60.10
2023-04-12T11:20:01.140Z,64.29
2023-04-12T11:21:01.011Z,62.84
2023-04-12T11:22:01.083Z,66.71
2023-04-12T11:23:00.929Z,69.29
2023-04-12T11:24:01.112Z,69.61
2023-04-12T11:25:00.954Z,71.87
2023-04-12T11:26:01.002Z,72.51
2023-04-12T11:27:00.901Z,70.58
2023-04-12T11:28:00.992Z,72.03
2023-04-12T11:29:00.861Z,76.54
2023-04-12T11:30:00.970Z,74.28
2023-04-12T11:31:00.850Z,73.64
2023-04-12T11:32:00.813Z,75.57
2023-04-12T11:33:01.026Z,77.18
2023-04-12T11:34:01.028Z,74.77
2023-04-12T11:35:00.866Z,91.85
2023-04-12T11:36:00.664Z,74.44
2023-04-12T11:37:00.891Z,74.77
2023-04-12T11:38:00.729Z,68.96
2023-04-12T11:39:00.852Z,73.96
2023-04-12T11:40:00.684Z,68.96
2023-04-12T11:41:00.785Z,72.99
2023-04-12T11:42:00.765Z,75.89
2023-04-12T11:43:00.774Z,69.29
2023-04-12T11:44:00.793Z,73.96
2023-04-12T11:45:05.612Z,81.53
2023-04-12T11:46:00.831Z,73.64
2023-04-12T11:47:00.512Z,77.83
2023-04-12T11:48:00.824Z,75.25
2023-04-12T11:49:00.496Z,75.73
2023-04-12T11:50:00.753Z,73.64
2023-04-12T11:51:10.856Z,77.50
2023-04-12T11:52:00.773Z,70.09
2023-04-12T11:53:00.713Z,74.93
2023-04-12T11:54:00.770Z,77.50
2023-04-12T11:55:01.534Z,72.51
2023-04-12T11:56:00.735Z,76.54
2023-04-12T11:57:00.881Z,73.80
2023-04-12T11:58:00.644Z,76.22
2023-04-12T11:59:01.497Z,80.73
2023-04-12T12:00:00.771Z,80.57
2023-04-12T12:01:01.595Z,80.89
2023-04-12T12:02:00.812Z,83.63
2023-04-12T12:03:07.681Z,83.47
2023-04-12T12:04:00.907Z,83.14
2023-04-12T12:05:00.626Z,79.60
2023-04-12T12:06:00.802Z,78.47
2023-04-12T12:07:00.829Z,76.22
2023-04-12T12:08:01.343Z,68.00
2023-04-12T12:09:00.531Z,64.78
2023-04-12T12:10:00.400Z,57.69
2023-04-12T12:11:07.694Z,51.88
2023-04-12T12:12:00.455Z,50.27
2023-04-12T12:13:00.576Z,45.60
2023-04-12T12:14:00.878Z,43.67
2023-04-12T12:15:00.485Z,48.66
2023-04-12T12:16:00.392Z,46.73
2023-04-12T12:17:00.300Z,42.70
2023-04-12T12:18:00.436Z,43.67
2023-04-12T12:19:00.339Z,43.51
2023-04-12T12:20:00.435Z,44.79
2023-04-12T12:21:00.190Z,46.08
2023-04-12T12:22:00.392Z,44.63
2023-04-12T12:23:01.227Z,44.79
2023-04-12T12:24:00.615Z,47.21
2023-04-12T12:25:00.961Z,51.24
2023-04-12T12:26:14.854Z,44.47
2023-04-12T12:27:00.323Z,46.73
2023-04-12T12:29:57.957Z,46.73
2023-04-12T12:30:04.826Z,47.05
2023-04-12T12:31:05.145Z,48.98
2023-04-12T12:32:04.186Z,48.50
2023-04-12T12:33:04.329Z,42.54
2023-04-12T12:34:08.348Z,44.15
2023-04-12T12:35:04.260Z,53.50
2023-04-12T12:36:04.678Z,56.56
2023-04-12T12:37:04.037Z,45.92
2023-04-12T12:38:05.568Z,46.25
2023-04-12T12:39:04.040Z,44.15
2023-04-12T12:40:04.329Z,45.44
2023-04-12T12:41:04.127Z,43.02
2023-04-12T12:42:04.889Z,48.02
2023-04-12T12:43:04.049Z,47.53
2023-04-12T12:44:03.965Z,38.99
2023-04-12T12:45:04.159Z,39.64
2023-04-12T12:46:03.892Z,40.12
2023-04-12T12:47:13.633Z,43.18
2023-04-12T12:48:04.326Z,39.48
2023-04-12T12:49:03.209Z,37.22
2023-04-12T12:50:04.011Z,41.41
2023-04-12T12:51:03.238Z,38.83
2023-04-12T12:52:03.893Z,38.35
2023-04-12T12:53:04.512Z,38.99